TAF and METAR

Decoding for American and Canadian METARs and TAFs is not fully implemented.

Could not understand the following METAR

KSAT 192051Z 29007KT 220V340 10SM FEW065 33/14 A2973 RMK AO2 SLP049 T03330139 56026

TAF for San Antonio International Airport

KSAT 191731Z 1918/2024 24007KT P6SM FEW040 FM200000 35005KT P6SM BKN050 FM200800 06005KT P6SM BKN012 FM201800 17011KT P6SM BKN035
Report created 19. okt 19:31

between 19. okt 20:00 - 20. okt 02:00

wind 7 knots from WSW (240°)
San Antonio International Airport in United States of America at 243m

Latest 5 airports